sensor_id;sensor_type;location;lat;lon;timestamp;P1;durP1;ratioP1;P2;durP2;ratioP2
25567;SDS011;13455;51.480;7.594;2023-07-09T00:01:56;6.20;;;3.93;;
25567;SDS011;13455;51.480;7.594;2023-07-09T00:04:22;7.63;;;4.20;;
25567;SDS011;13455;51.480;7.594;2023-07-09T00:06:48;6.88;;;3.90;;
25567;SDS011;13455;51.480;7.594;2023-07-09T00:09:15;7.22;;;3.70;;
25567;SDS011;13455;51.480;7.594;2023-07-09T00:11:42;5.85;;;3.83;;
25567;SDS011;13455;51.480;7.594;2023-07-09T00:14:09;8.23;;;3.97;;
25567;SDS011;13455;51.480;7.594;2023-07-09T00:16:36;6.38;;;3.97;;
25567;SDS011;13455;51.480;7.594;2023-07-09T00:19:01;7.93;;;3.88;;
25567;SDS011;13455;51.480;7.594;2023-07-09T00:21:28;7.05;;;3.83;;
25567;SDS011;13455;51.480;7.594;2023-07-09T00:23:59;6.93;;;4.03;;
25567;SDS011;13455;51.480;7.594;2023-07-09T00:26:29;6.63;;;4.15;;
25567;SDS011;13455;51.480;7.594;2023-07-09T00:28:55;6.88;;;3.75;;
25567;SDS011;13455;51.480;7.594;2023-07-09T00:31:21;7.05;;;3.97;;
25567;SDS011;13455;51.480;7.594;2023-07-09T00:33:48;6.70;;;4.10;;
25567;SDS011;13455;51.480;7.594;2023-07-09T00:36:15;7.05;;;4.18;;
25567;SDS011;13455;51.480;7.594;2023-07-09T00:38:48;6.20;;;3.92;;
25567;SDS011;13455;51.480;7.594;2023-07-09T00:41:17;8.88;;;4.25;;
25567;SDS011;13455;51.480;7.594;2023-07-09T00:43:44;8.20;;;4.43;;
25567;SDS011;13455;51.480;7.594;2023-07-09T00:48:45;8.05;;;4.60;;
25567;SDS011;13455;51.480;7.594;2023-07-09T00:51:13;8.65;;;4.40;;
25567;SDS011;13455;51.480;7.594;2023-07-09T00:53:39;8.20;;;4.22;;
25567;SDS011;13455;51.480;7.594;2023-07-09T00:56:11;7.78;;;4.30;;
25567;SDS011;13455;51.480;7.594;2023-07-09T00:58:51;8.57;;;4.10;;
25567;SDS011;13455;51.480;7.594;2023-07-09T01:01:19;8.68;;;4.28;;
25567;SDS011;13455;51.480;7.594;2023-07-09T01:03:46;8.80;;;4.10;;
25567;SDS011;13455;51.480;7.594;2023-07-09T01:06:18;7.95;;;4.40;;
25567;SDS011;13455;51.480;7.594;2023-07-09T01:08:45;8.45;;;4.70;;
25567;SDS011;13455;51.480;7.594;2023-07-09T01:11:17;8.10;;;4.20;;
25567;SDS011;13455;51.480;7.594;2023-07-09T01:13:46;7.13;;;4.30;;
25567;SDS011;13455;51.480;7.594;2023-07-09T01:16:33;9.47;;;4.60;;
25567;SDS011;13455;51.480;7.594;2023-07-09T01:19:02;8.53;;;4.50;;
25567;SDS011;13455;51.480;7.594;2023-07-09T01:21:29;8.18;;;4.47;;
25567;SDS011;13455;51.480;7.594;2023-07-09T01:23:55;7.65;;;4.53;;
25567;SDS011;13455;51.480;7.594;2023-07-09T01:26:23;7.38;;;4.40;;
25567;SDS011;13455;51.480;7.594;2023-07-09T01:28:51;7.18;;;4.10;;
25567;SDS011;13455;51.480;7.594;2023-07-09T01:31:17;7.10;;;4.20;;
25567;SDS011;13455;51.480;7.594;2023-07-09T01:33:43;6.53;;;4.20;;
25567;SDS011;13455;51.480;7.594;2023-07-09T01:36:13;7.77;;;4.30;;
25567;SDS011;13455;51.480;7.594;2023-07-09T01:38:40;6.57;;;4.18;;
25567;SDS011;13455;51.480;7.594;2023-07-09T01:41:06;6.97;;;4.13;;
25567;SDS011;13455;51.480;7.594;2023-07-09T01:43:32;7.43;;;4.10;;
25567;SDS011;13455;51.480;7.594;2023-07-09T01:45:59;7.10;;;4.30;;
25567;SDS011;13455;51.480;7.594;2023-07-09T01:48:25;7.22;;;4.10;;
25567;SDS011;13455;51.480;7.594;2023-07-09T01:50:52;8.15;;;4.25;;
25567;SDS011;13455;51.480;7.594;2023-07-09T01:53:19;6.32;;;4.05;;
25567;SDS011;13455;51.480;7.594;2023-07-09T01:55:50;8.40;;;4.57;;
25567;SDS011;13455;51.480;7.594;2023-07-09T01:58:16;8.05;;;4.47;;
25567;SDS011;13455;51.480;7.594;2023-07-09T02:00:41;8.57;;;4.40;;
25567;SDS011;13455;51.480;7.594;2023-07-09T02:03:09;8.17;;;4.40;;
25567;SDS011;13455;51.480;7.594;2023-07-09T02:05:35;7.07;;;4.38;;
25567;SDS011;13455;51.480;7.594;2023-07-09T02:08:02;7.40;;;4.30;;
25567;SDS011;13455;51.480;7.594;2023-07-09T02:10:28;6.57;;;4.20;;
25567;SDS011;13455;51.480;7.594;2023-07-09T02:12:54;7.63;;;4.43;;
25567;SDS011;13455;51.480;7.594;2023-07-09T02:15:20;7.80;;;4.18;;
25567;SDS011;13455;51.480;7.594;2023-07-09T02:17:46;8.83;;;4.30;;
25567;SDS011;13455;51.480;7.594;2023-07-09T02:20:12;6.97;;;4.20;;
25567;SDS011;13455;51.480;7.594;2023-07-09T02:22:39;8.23;;;4.30;;
25567;SDS011;13455;51.480;7.594;2023-07-09T02:25:07;8.75;;;4.20;;
25567;SDS011;13455;51.480;7.594;2023-07-09T02:27:34;7.73;;;4.20;;
25567;SDS011;13455;51.480;7.594;2023-07-09T02:30:00;7.70;;;4.22;;
25567;SDS011;13455;51.480;7.594;2023-07-09T02:32:27;8.07;;;4.43;;
25567;SDS011;13455;51.480;7.594;2023-07-09T02:34:53;8.00;;;4.37;;
25567;SDS011;13455;51.480;7.594;2023-07-09T02:37:28;10.55;;;4.28;;
25567;SDS011;13455;51.480;7.594;2023-07-09T02:39:54;6.88;;;4.30;;
25567;SDS011;13455;51.480;7.594;2023-07-09T02:42:20;8.00;;;4.40;;
25567;SDS011;13455;51.480;7.594;2023-07-09T02:44:47;6.72;;;4.30;;
25567;SDS011;13455;51.480;7.594;2023-07-09T02:47:12;8.30;;;4.22;;
25567;SDS011;13455;51.480;7.594;2023-07-09T02:49:39;7.13;;;4.32;;
25567;SDS011;13455;51.480;7.594;2023-07-09T02:52:05;8.80;;;4.20;;
25567;SDS011;13455;51.480;7.594;2023-07-09T02:54:31;8.27;;;4.50;;
25567;SDS011;13455;51.480;7.594;2023-07-09T02:56:57;7.33;;;4.27;;
25567;SDS011;13455;51.480;7.594;2023-07-09T02:59:23;8.45;;;4.47;;
25567;SDS011;13455;51.480;7.594;2023-07-09T03:01:49;7.10;;;4.50;;
25567;SDS011;13455;51.480;7.594;2023-07-09T03:04:14;8.73;;;4.50;;
25567;SDS011;13455;51.480;7.594;2023-07-09T03:06:40;8.35;;;4.55;;
25567;SDS011;13455;51.480;7.594;2023-07-09T03:09:06;8.10;;;4.35;;
25567;SDS011;13455;51.480;7.594;2023-07-09T03:11:33;7.05;;;4.45;;
25567;SDS011;13455;51.480;7.594;2023-07-09T03:14:00;8.27;;;4.20;;
25567;SDS011;13455;51.480;7.594;2023-07-09T03:16:27;8.20;;;4.40;;
25567;SDS011;13455;51.480;7.594;2023-07-09T03:18:54;8.13;;;4.40;;
25567;SDS011;13455;51.480;7.594;2023-07-09T03:21:20;7.40;;;4.60;;
25567;SDS011;13455;51.480;7.594;2023-07-09T03:23:50;9.03;;;4.40;;
25567;SDS011;13455;51.480;7.594;2023-07-09T03:26:16;7.50;;;4.23;;
25567;SDS011;13455;51.480;7.594;2023-07-09T03:28:42;6.80;;;4.20;;
25567;SDS011;13455;51.480;7.594;2023-07-09T03:31:07;9.03;;;4.53;;
25567;SDS011;13455;51.480;7.594;2023-07-09T03:33:33;8.70;;;4.50;;
25567;SDS011;13455;51.480;7.594;2023-07-09T03:35:59;7.97;;;4.40;;
25567;SDS011;13455;51.480;7.594;2023-07-09T03:38:25;7.25;;;4.30;;
25567;SDS011;13455;51.480;7.594;2023-07-09T03:40:53;8.40;;;4.47;;
25567;SDS011;13455;51.480;7.594;2023-07-09T03:43:20;7.55;;;4.70;;
25567;SDS011;13455;51.480;7.594;2023-07-09T03:45:46;8.15;;;4.75;;
25567;SDS011;13455;51.480;7.594;2023-07-09T03:48:12;8.05;;;4.78;;
25567;SDS011;13455;51.480;7.594;2023-07-09T03:50:41;8.60;;;4.63;;
25567;SDS011;13455;51.480;7.594;2023-07-09T03:53:08;7.93;;;4.53;;
25567;SDS011;13455;51.480;7.594;2023-07-09T03:55:34;9.17;;;4.60;;
25567;SDS011;13455;51.480;7.594;2023-07-09T03:57:59;7.83;;;4.60;;
25567;SDS011;13455;51.480;7.594;2023-07-09T04:00:27;9.52;;;4.75;;
25567;SDS011;13455;51.480;7.594;2023-07-09T04:02:53;6.95;;;4.78;;
25567;SDS011;13455;51.480;7.594;2023-07-09T04:05:21;8.40;;;4.53;;
25567;SDS011;13455;51.480;7.594;2023-07-09T04:07:48;7.97;;;4.60;;
25567;SDS011;13455;51.480;7.594;2023-07-09T04:10:13;8.77;;;4.50;;
25567;SDS011;13455;51.480;7.594;2023-07-09T04:12:39;8.20;;;4.87;;
25567;SDS011;13455;51.480;7.594;2023-07-09T04:15:05;7.45;;;4.50;;
25567;SDS011;13455;51.480;7.594;2023-07-09T04:17:31;7.17;;;4.60;;
25567;SDS011;13455;51.480;7.594;2023-07-09T04:19:57;7.87;;;4.60;;
25567;SDS011;13455;51.480;7.594;2023-07-09T04:22:23;7.53;;;4.47;;
25567;SDS011;13455;51.480;7.594;2023-07-09T04:24:49;6.78;;;4.47;;
25567;SDS011;13455;51.480;7.594;2023-07-09T04:27:15;8.27;;;4.80;;
25567;SDS011;13455;51.480;7.594;2023-07-09T04:29:41;8.45;;;5.10;;
25567;SDS011;13455;51.480;7.594;2023-07-09T04:32:08;8.63;;;4.75;;
25567;SDS011;13455;51.480;7.594;2023-07-09T04:34:38;9.35;;;4.80;;
25567;SDS011;13455;51.480;7.594;2023-07-09T04:37:05;8.05;;;4.70;;
25567;SDS011;13455;51.480;7.594;2023-07-09T04:39:32;8.98;;;4.90;;
25567;SDS011;13455;51.480;7.594;2023-07-09T04:41:58;9.60;;;4.80;;
25567;SDS011;13455;51.480;7.594;2023-07-09T04:44:24;7.87;;;4.77;;
25567;SDS011;13455;51.480;7.594;2023-07-09T04:46:50;7.53;;;4.77;;
25567;SDS011;13455;51.480;7.594;2023-07-09T04:49:16;12.00;;;4.88;;
25567;SDS011;13455;51.480;7.594;2023-07-09T04:51:41;10.02;;;4.72;;
25567;SDS011;13455;51.480;7.594;2023-07-09T04:54:07;7.63;;;4.53;;
25567;SDS011;13455;51.480;7.594;2023-07-09T04:56:33;8.45;;;4.70;;
25567;SDS011;13455;51.480;7.594;2023-07-09T04:58:58;7.45;;;4.80;;
25567;SDS011;13455;51.480;7.594;2023-07-09T05:01:24;9.00;;;4.57;;
25567;SDS011;13455;51.480;7.594;2023-07-09T05:03:49;9.20;;;5.00;;
25567;SDS011;13455;51.480;7.594;2023-07-09T05:06:15;7.73;;;4.77;;
25567;SDS011;13455;51.480;7.594;2023-07-09T05:08:41;8.65;;;5.00;;
25567;SDS011;13455;51.480;7.594;2023-07-09T05:11:08;8.77;;;5.00;;
25567;SDS011;13455;51.480;7.594;2023-07-09T05:13:35;9.60;;;5.05;;
25567;SDS011;13455;51.480;7.594;2023-07-09T05:16:01;8.00;;;4.90;;
25567;SDS011;13455;51.480;7.594;2023-07-09T05:18:27;8.23;;;4.77;;
25567;SDS011;13455;51.480;7.594;2023-07-09T05:20:52;9.73;;;4.83;;
25567;SDS011;13455;51.480;7.594;2023-07-09T05:23:18;9.17;;;4.70;;
25567;SDS011;13455;51.480;7.594;2023-07-09T05:25:44;9.32;;;4.75;;
25567;SDS011;13455;51.480;7.594;2023-07-09T05:28:09;9.90;;;4.90;;
25567;SDS011;13455;51.480;7.594;2023-07-09T05:30:35;7.63;;;4.80;;
25567;SDS011;13455;51.480;7.594;2023-07-09T05:33:00;11.33;;;5.20;;
25567;SDS011;13455;51.480;7.594;2023-07-09T05:35:26;7.83;;;4.60;;
25567;SDS011;13455;51.480;7.594;2023-07-09T05:37:52;8.52;;;4.82;;
25567;SDS011;13455;51.480;7.594;2023-07-09T05:40:18;10.05;;;4.93;;
25567;SDS011;13455;51.480;7.594;2023-07-09T05:42:44;7.32;;;4.85;;
25567;SDS011;13455;51.480;7.594;2023-07-09T05:45:10;10.33;;;4.80;;
25567;SDS011;13455;51.480;7.594;2023-07-09T05:47:36;10.23;;;5.10;;
25567;SDS011;13455;51.480;7.594;2023-07-09T05:50:02;7.55;;;5.22;;
25567;SDS011;13455;51.480;7.594;2023-07-09T05:52:28;8.70;;;4.60;;
25567;SDS011;13455;51.480;7.594;2023-07-09T05:54:54;8.80;;;5.07;;
25567;SDS011;13455;51.480;7.594;2023-07-09T05:57:20;11.40;;;5.20;;
25567;SDS011;13455;51.480;7.594;2023-07-09T05:59:46;11.37;;;5.03;;
25567;SDS011;13455;51.480;7.594;2023-07-09T06:02:16;10.90;;;5.30;;
25567;SDS011;13455;51.480;7.594;2023-07-09T06:04:44;9.43;;;5.03;;
25567;SDS011;13455;51.480;7.594;2023-07-09T06:07:10;9.30;;;5.07;;
25567;SDS011;13455;51.480;7.594;2023-07-09T06:09:37;7.70;;;4.80;;
25567;SDS011;13455;51.480;7.594;2023-07-09T06:12:03;9.85;;;4.80;;
25567;SDS011;13455;51.480;7.594;2023-07-09T06:14:30;10.35;;;5.43;;
25567;SDS011;13455;51.480;7.594;2023-07-09T06:16:56;8.27;;;4.85;;
25567;SDS011;13455;51.480;7.594;2023-07-09T06:19:22;7.20;;;4.97;;
25567;SDS011;13455;51.480;7.594;2023-07-09T06:21:48;9.00;;;5.13;;
25567;SDS011;13455;51.480;7.594;2023-07-09T06:24:14;9.73;;;4.90;;
25567;SDS011;13455;51.480;7.594;2023-07-09T06:26:39;9.40;;;5.20;;
25567;SDS011;13455;51.480;7.594;2023-07-09T06:29:05;8.57;;;4.90;;
25567;SDS011;13455;51.480;7.594;2023-07-09T06:31:31;8.68;;;4.72;;
25567;SDS011;13455;51.480;7.594;2023-07-09T06:33:56;10.47;;;4.90;;
25567;SDS011;13455;51.480;7.594;2023-07-09T06:36:22;10.57;;;5.10;;
25567;SDS011;13455;51.480;7.594;2023-07-09T06:38:48;8.13;;;5.40;;
25567;SDS011;13455;51.480;7.594;2023-07-09T06:41:14;11.03;;;5.27;;
25567;SDS011;13455;51.480;7.594;2023-07-09T06:43:40;10.07;;;5.40;;
25567;SDS011;13455;51.480;7.594;2023-07-09T06:46:06;8.33;;;5.40;;
25567;SDS011;13455;51.480;7.594;2023-07-09T06:48:34;10.65;;;5.00;;
25567;SDS011;13455;51.480;7.594;2023-07-09T06:50:59;9.93;;;5.20;;
25567;SDS011;13455;51.480;7.594;2023-07-09T06:53:26;8.85;;;4.82;;
25567;SDS011;13455;51.480;7.594;2023-07-09T06:55:53;10.02;;;5.00;;
25567;SDS011;13455;51.480;7.594;2023-07-09T06:58:20;7.88;;;5.00;;
25567;SDS011;13455;51.480;7.594;2023-07-09T07:00:48;7.10;;;5.13;;
25567;SDS011;13455;51.480;7.594;2023-07-09T07:03:14;7.40;;;5.05;;
25567;SDS011;13455;51.480;7.594;2023-07-09T07:05:43;9.63;;;5.25;;
25567;SDS011;13455;51.480;7.594;2023-07-09T07:08:10;11.13;;;5.32;;
25567;SDS011;13455;51.480;7.594;2023-07-09T07:10:36;7.75;;;5.28;;
25567;SDS011;13455;51.480;7.594;2023-07-09T07:13:01;8.20;;;4.83;;
25567;SDS011;13455;51.480;7.594;2023-07-09T07:15:27;9.43;;;5.10;;
25567;SDS011;13455;51.480;7.594;2023-07-09T07:17:52;9.07;;;5.07;;
25567;SDS011;13455;51.480;7.594;2023-07-09T07:20:18;9.55;;;4.95;;
25567;SDS011;13455;51.480;7.594;2023-07-09T07:22:44;12.15;;;5.30;;
25567;SDS011;13455;51.480;7.594;2023-07-09T07:25:10;9.27;;;5.10;;
25567;SDS011;13455;51.480;7.594;2023-07-09T07:27:37;10.15;;;5.38;;
25567;SDS011;13455;51.480;7.594;2023-07-09T07:30:03;7.63;;;5.00;;
25567;SDS011;13455;51.480;7.594;2023-07-09T07:32:29;12.25;;;5.50;;
25567;SDS011;13455;51.480;7.594;2023-07-09T07:34:54;8.70;;;5.13;;
25567;SDS011;13455;51.480;7.594;2023-07-09T07:37:20;11.10;;;5.20;;
25567;SDS011;13455;51.480;7.594;2023-07-09T07:39:46;8.63;;;4.95;;
25567;SDS011;13455;51.480;7.594;2023-07-09T07:42:12;7.93;;;5.10;;
25567;SDS011;13455;51.480;7.594;2023-07-09T07:44:38;10.52;;;5.47;;
25567;SDS011;13455;51.480;7.594;2023-07-09T07:47:04;10.97;;;5.23;;
25567;SDS011;13455;51.480;7.594;2023-07-09T07:49:31;8.27;;;5.27;;
25567;SDS011;13455;51.480;7.594;2023-07-09T07:51:56;7.72;;;4.88;;
25567;SDS011;13455;51.480;7.594;2023-07-09T07:54:22;9.10;;;5.00;;
25567;SDS011;13455;51.480;7.594;2023-07-09T07:56:48;8.57;;;5.10;;
25567;SDS011;13455;51.480;7.594;2023-07-09T07:59:13;9.43;;;5.10;;
25567;SDS011;13455;51.480;7.594;2023-07-09T08:01:40;8.23;;;4.97;;
25567;SDS011;13455;51.480;7.594;2023-07-09T08:04:06;8.60;;;5.20;;
25567;SDS011;13455;51.480;7.594;2023-07-09T08:06:32;8.43;;;4.85;;
25567;SDS011;13455;51.480;7.594;2023-07-09T08:08:58;10.10;;;5.25;;
25567;SDS011;13455;51.480;7.594;2023-07-09T08:11:24;9.10;;;5.20;;
25567;SDS011;13455;51.480;7.594;2023-07-09T08:13:50;9.68;;;5.65;;
25567;SDS011;13455;51.480;7.594;2023-07-09T08:16:16;7.88;;;5.25;;
25567;SDS011;13455;51.480;7.594;2023-07-09T08:18:42;10.27;;;5.30;;
25567;SDS011;13455;51.480;7.594;2023-07-09T08:21:07;7.70;;;5.18;;
25567;SDS011;13455;51.480;7.594;2023-07-09T08:23:34;9.65;;;5.10;;
25567;SDS011;13455;51.480;7.594;2023-07-09T08:26:00;9.00;;;5.20;;
25567;SDS011;13455;51.480;7.594;2023-07-09T08:28:28;6.15;;;5.00;;
25567;SDS011;13455;51.480;7.594;2023-07-09T08:30:54;8.10;;;5.30;;
25567;SDS011;13455;51.480;7.594;2023-07-09T08:33:21;9.02;;;5.30;;
25567;SDS011;13455;51.480;7.594;2023-07-09T08:35:50;9.38;;;5.50;;
25567;SDS011;13455;51.480;7.594;2023-07-09T08:38:17;8.98;;;5.40;;
25567;SDS011;13455;51.480;7.594;2023-07-09T08:41:07;7.85;;;5.07;;
25567;SDS011;13455;51.480;7.594;2023-07-09T08:43:56;10.13;;;5.60;;
25567;SDS011;13455;51.480;7.594;2023-07-09T08:46:49;10.95;;;5.65;;
25567;SDS011;13455;51.480;7.594;2023-07-09T08:52:27;10.80;;;5.63;;
25567;SDS011;13455;51.480;7.594;2023-07-09T08:54:54;10.80;;;5.90;;
25567;SDS011;13455;51.480;7.594;2023-07-09T08:57:23;12.57;;;6.10;;
25567;SDS011;13455;51.480;7.594;2023-07-09T08:59:54;10.53;;;5.67;;
25567;SDS011;13455;51.480;7.594;2023-07-09T09:02:27;9.77;;;5.45;;
25567;SDS011;13455;51.480;7.594;2023-07-09T09:04:55;10.88;;;5.60;;
25567;SDS011;13455;51.480;7.594;2023-07-09T09:07:42;11.07;;;5.82;;
25567;SDS011;13455;51.480;7.594;2023-07-09T09:10:10;8.87;;;5.70;;
25567;SDS011;13455;51.480;7.594;2023-07-09T09:12:44;9.85;;;5.88;;
25567;SDS011;13455;51.480;7.594;2023-07-09T09:15:17;8.65;;;5.93;;
25567;SDS011;13455;51.480;7.594;2023-07-09T09:17:43;9.40;;;5.50;;
25567;SDS011;13455;51.480;7.594;2023-07-09T09:20:11;8.30;;;5.57;;
25567;SDS011;13455;51.480;7.594;2023-07-09T09:22:43;9.73;;;5.30;;
25567;SDS011;13455;51.480;7.594;2023-07-09T09:27:41;9.63;;;5.40;;
25567;SDS011;13455;51.480;7.594;2023-07-09T09:30:17;8.40;;;5.35;;
25567;SDS011;13455;51.480;7.594;2023-07-09T09:32:45;8.68;;;5.00;;
25567;SDS011;13455;51.480;7.594;2023-07-09T09:35:18;10.02;;;4.95;;
25567;SDS011;13455;51.480;7.594;2023-07-09T09:37:55;8.10;;;5.00;;
25567;SDS011;13455;51.480;7.594;2023-07-09T09:40:21;10.07;;;4.78;;
25567;SDS011;13455;51.480;7.594;2023-07-09T09:42:49;6.78;;;4.60;;
25567;SDS011;13455;51.480;7.594;2023-07-09T09:45:17;8.67;;;4.43;;
25567;SDS011;13455;51.480;7.594;2023-07-09T09:47:45;8.50;;;4.40;;
25567;SDS011;13455;51.480;7.594;2023-07-09T09:50:15;7.73;;;4.70;;
25567;SDS011;13455;51.480;7.594;2023-07-09T09:52:42;7.40;;;4.50;;
25567;SDS011;13455;51.480;7.594;2023-07-09T09:55:30;7.28;;;4.40;;
25567;SDS011;13455;51.480;7.594;2023-07-09T09:57:55;7.63;;;4.13;;
25567;SDS011;13455;51.480;7.594;2023-07-09T10:00:23;7.20;;;4.17;;
25567;SDS011;13455;51.480;7.594;2023-07-09T10:02:50;7.57;;;4.30;;
25567;SDS011;13455;51.480;7.594;2023-07-09T10:05:21;6.55;;;4.00;;
25567;SDS011;13455;51.480;7.594;2023-07-09T10:08:01;7.20;;;4.00;;
25567;SDS011;13455;51.480;7.594;2023-07-09T10:10:33;6.18;;;3.70;;
25567;SDS011;13455;51.480;7.594;2023-07-09T10:13:02;9.27;;;3.80;;
25567;SDS011;13455;51.480;7.594;2023-07-09T10:15:40;9.68;;;3.75;;
25567;SDS011;13455;51.480;7.594;2023-07-09T10:20:51;5.90;;;3.72;;
25567;SDS011;13455;51.480;7.594;2023-07-09T10:24:09;8.48;;;3.92;;
25567;SDS011;13455;51.480;7.594;2023-07-09T10:26:29;8.57;;;4.10;;
25567;SDS011;13455;51.480;7.594;2023-07-09T10:34:12;7.40;;;4.32;;
25567;SDS011;13455;51.480;7.594;2023-07-09T10:39:32;7.28;;;3.80;;
25567;SDS011;13455;51.480;7.594;2023-07-09T10:42:01;7.97;;;3.92;;
25567;SDS011;13455;51.480;7.594;2023-07-09T10:44:32;6.45;;;3.97;;
25567;SDS011;13455;51.480;7.594;2023-07-09T10:47:07;8.18;;;3.80;;
25567;SDS011;13455;51.480;7.594;2023-07-09T10:49:56;8.07;;;3.90;;
25567;SDS011;13455;51.480;7.594;2023-07-09T10:52:28;7.65;;;3.80;;
25567;SDS011;13455;51.480;7.594;2023-07-09T11:00:33;8.23;;;3.70;;
25567;SDS011;13455;51.480;7.594;2023-07-09T11:03:02;6.82;;;3.67;;
25567;SDS011;13455;51.480;7.594;2023-07-09T11:05:29;6.25;;;3.80;;
25567;SDS011;13455;51.480;7.594;2023-07-09T11:07:59;6.85;;;3.70;;
25567;SDS011;13455;51.480;7.594;2023-07-09T11:10:30;6.27;;;3.57;;
25567;SDS011;13455;51.480;7.594;2023-07-09T11:12:59;7.07;;;3.80;;
25567;SDS011;13455;51.480;7.594;2023-07-09T11:15:27;6.88;;;3.92;;
25567;SDS011;13455;51.480;7.594;2023-07-09T11:17:57;8.50;;;3.80;;
25567;SDS011;13455;51.480;7.594;2023-07-09T11:20:43;8.02;;;3.75;;
25567;SDS011;13455;51.480;7.594;2023-07-09T11:23:24;6.40;;;3.80;;
25567;SDS011;13455;51.480;7.594;2023-07-09T11:28:54;7.32;;;3.60;;
25567;SDS011;13455;51.480;7.594;2023-07-09T11:31:35;6.30;;;3.75;;
25567;SDS011;13455;51.480;7.594;2023-07-09T11:39:30;9.68;;;3.47;;
25567;SDS011;13455;51.480;7.594;2023-07-09T11:41:57;5.70;;;3.30;;
25567;SDS011;13455;51.480;7.594;2023-07-09T11:44:30;8.17;;;3.37;;
25567;SDS011;13455;51.480;7.594;2023-07-09T11:52:28;5.57;;;3.10;;
25567;SDS011;13455;51.480;7.594;2023-07-09T11:58:04;5.60;;;3.10;;
25567;SDS011;13455;51.480;7.594;2023-07-09T12:03:06;5.90;;;3.10;;
25567;SDS011;13455;51.480;7.594;2023-07-09T12:05:36;7.03;;;3.00;;
25567;SDS011;13455;51.480;7.594;2023-07-09T12:08:05;7.43;;;3.40;;
25567;SDS011;13455;51.480;7.594;2023-07-09T12:10:33;5.28;;;2.83;;
25567;SDS011;13455;51.480;7.594;2023-07-09T12:13:00;5.53;;;3.00;;
25567;SDS011;13455;51.480;7.594;2023-07-09T12:15:29;7.28;;;3.00;;
25567;SDS011;13455;51.480;7.594;2023-07-09T12:18:01;6.53;;;3.10;;
25567;SDS011;13455;51.480;7.594;2023-07-09T12:20:30;5.33;;;2.90;;
25567;SDS011;13455;51.480;7.594;2023-07-09T12:23:00;4.05;;;2.70;;
25567;SDS011;13455;51.480;7.594;2023-07-09T12:25:35;5.45;;;2.70;;
25567;SDS011;13455;51.480;7.594;2023-07-09T12:28:00;5.43;;;2.80;;
25567;SDS011;13455;51.480;7.594;2023-07-09T12:30:27;6.33;;;3.00;;
25567;SDS011;13455;51.480;7.594;2023-07-09T12:32:57;5.07;;;2.70;;
25567;SDS011;13455;51.480;7.594;2023-07-09T12:35:23;5.63;;;2.60;;
25567;SDS011;13455;51.480;7.594;2023-07-09T12:37:48;7.90;;;2.83;;
25567;SDS011;13455;51.480;7.594;2023-07-09T12:40:20;5.80;;;2.70;;
25567;SDS011;13455;51.480;7.594;2023-07-09T12:42:47;5.13;;;2.70;;
25567;SDS011;13455;51.480;7.594;2023-07-09T12:45:14;6.50;;;2.70;;
25567;SDS011;13455;51.480;7.594;2023-07-09T12:47:44;5.47;;;2.70;;
25567;SDS011;13455;51.480;7.594;2023-07-09T12:50:33;5.10;;;2.60;;
25567;SDS011;13455;51.480;7.594;2023-07-09T12:53:22;6.43;;;2.60;;
25567;SDS011;13455;51.480;7.594;2023-07-09T12:55:48;4.63;;;2.58;;
25567;SDS011;13455;51.480;7.594;2023-07-09T12:58:19;6.30;;;2.90;;
25567;SDS011;13455;51.480;7.594;2023-07-09T13:00:51;5.70;;;2.83;;
25567;SDS011;13455;51.480;7.594;2023-07-09T13:03:20;5.57;;;2.80;;
25567;SDS011;13455;51.480;7.594;2023-07-09T13:05:53;5.50;;;2.90;;
25567;SDS011;13455;51.480;7.594;2023-07-09T13:08:21;5.00;;;2.72;;
25567;SDS011;13455;51.480;7.594;2023-07-09T13:10:49;5.17;;;2.90;;
25567;SDS011;13455;51.480;7.594;2023-07-09T13:13:16;7.18;;;2.80;;
25567;SDS011;13455;51.480;7.594;2023-07-09T13:15:47;8.18;;;2.90;;
25567;SDS011;13455;51.480;7.594;2023-07-09T13:18:22;5.15;;;2.55;;
25567;SDS011;13455;51.480;7.594;2023-07-09T13:20:48;7.97;;;2.92;;
25567;SDS011;13455;51.480;7.594;2023-07-09T13:23:16;6.20;;;3.00;;
25567;SDS011;13455;51.480;7.594;2023-07-09T13:25:44;7.35;;;2.92;;
25567;SDS011;13455;51.480;7.594;2023-07-09T13:28:21;5.68;;;2.80;;
25567;SDS011;13455;51.480;7.594;2023-07-09T13:30:47;5.83;;;2.70;;
25567;SDS011;13455;51.480;7.594;2023-07-09T13:33:14;5.15;;;2.72;;
25567;SDS011;13455;51.480;7.594;2023-07-09T13:35:42;7.40;;;2.90;;
25567;SDS011;13455;51.480;7.594;2023-07-09T13:38:16;5.75;;;2.65;;
25567;SDS011;13455;51.480;7.594;2023-07-09T13:40:43;4.97;;;2.83;;
25567;SDS011;13455;51.480;7.594;2023-07-09T13:43:25;7.63;;;3.17;;
25567;SDS011;13455;51.480;7.594;2023-07-09T13:45:52;5.05;;;2.88;;
25567;SDS011;13455;51.480;7.594;2023-07-09T13:48:21;4.95;;;2.70;;
25567;SDS011;13455;51.480;7.594;2023-07-09T13:50:47;6.80;;;3.10;;
25567;SDS011;13455;51.480;7.594;2023-07-09T13:53:19;6.10;;;2.85;;
25567;SDS011;13455;51.480;7.594;2023-07-09T13:55:47;5.18;;;2.85;;
25567;SDS011;13455;51.480;7.594;2023-07-09T13:58:15;6.13;;;2.83;;
25567;SDS011;13455;51.480;7.594;2023-07-09T14:00:44;5.23;;;2.60;;
25567;SDS011;13455;51.480;7.594;2023-07-09T14:03:17;6.97;;;3.07;;
25567;SDS011;13455;51.480;7.594;2023-07-09T14:05:46;5.30;;;2.80;;
25567;SDS011;13455;51.480;7.594;2023-07-09T14:08:12;7.45;;;2.92;;
25567;SDS011;13455;51.480;7.594;2023-07-09T14:10:45;5.65;;;3.00;;
25567;SDS011;13455;51.480;7.594;2023-07-09T14:13:12;5.55;;;3.17;;
25567;SDS011;13455;51.480;7.594;2023-07-09T14:15:40;4.53;;;2.60;;
25567;SDS011;13455;51.480;7.594;2023-07-09T14:18:13;4.53;;;2.72;;
25567;SDS011;13455;51.480;7.594;2023-07-09T14:20:40;5.07;;;3.10;;
25567;SDS011;13455;51.480;7.594;2023-07-09T14:23:08;5.63;;;2.67;;
25567;SDS011;13455;51.480;7.594;2023-07-09T14:25:37;5.10;;;2.95;;
25567;SDS011;13455;51.480;7.594;2023-07-09T14:28:04;6.47;;;2.95;;
25567;SDS011;13455;51.480;7.594;2023-07-09T14:30:35;7.07;;;3.00;;
25567;SDS011;13455;51.480;7.594;2023-07-09T14:33:00;7.37;;;3.10;;
25567;SDS011;13455;51.480;7.594;2023-07-09T14:35:26;6.27;;;2.90;;
25567;SDS011;13455;51.480;7.594;2023-07-09T14:37:52;6.03;;;3.00;;
25567;SDS011;13455;51.480;7.594;2023-07-09T14:40:19;6.80;;;2.80;;
25567;SDS011;13455;51.480;7.594;2023-07-09T14:42:46;7.10;;;3.10;;
25567;SDS011;13455;51.480;7.594;2023-07-09T14:45:23;5.70;;;3.03;;
25567;SDS011;13455;51.480;7.594;2023-07-09T14:47:50;7.35;;;3.30;;
25567;SDS011;13455;51.480;7.594;2023-07-09T14:50:17;5.57;;;3.10;;
25567;SDS011;13455;51.480;7.594;2023-07-09T14:52:44;5.60;;;3.08;;
25567;SDS011;13455;51.480;7.594;2023-07-09T14:55:15;8.20;;;3.40;;
25567;SDS011;13455;51.480;7.594;2023-07-09T14:57:44;6.68;;;3.50;;
25567;SDS011;13455;51.480;7.594;2023-07-09T15:00:17;6.05;;;3.65;;
25567;SDS011;13455;51.480;7.594;2023-07-09T15:02:44;6.57;;;3.58;;
25567;SDS011;13455;51.480;7.594;2023-07-09T15:05:29;6.93;;;3.40;;
25567;SDS011;13455;51.480;7.594;2023-07-09T15:07:55;8.77;;;3.50;;
25567;SDS011;13455;51.480;7.594;2023-07-09T15:10:24;6.80;;;3.33;;
25567;SDS011;13455;51.480;7.594;2023-07-09T15:12:52;7.65;;;3.42;;
25567;SDS011;13455;51.480;7.594;2023-07-09T15:15:22;8.20;;;3.23;;
25567;SDS011;13455;51.480;7.594;2023-07-09T15:17:50;9.57;;;3.40;;
25567;SDS011;13455;51.480;7.594;2023-07-09T15:20:20;8.95;;;3.30;;
25567;SDS011;13455;51.480;7.594;2023-07-09T15:22:50;13.77;;;3.42;;
25567;SDS011;13455;51.480;7.594;2023-07-09T15:25:35;12.77;;;3.50;;
25567;SDS011;13455;51.480;7.594;2023-07-09T15:28:00;8.17;;;3.70;;
25567;SDS011;13455;51.480;7.594;2023-07-09T15:30:28;16.00;;;3.97;;
25567;SDS011;13455;51.480;7.594;2023-07-09T15:32:56;10.80;;;3.70;;
25567;SDS011;13455;51.480;7.594;2023-07-09T15:35:22;8.20;;;3.50;;
25567;SDS011;13455;51.480;7.594;2023-07-09T15:37:50;11.10;;;3.20;;